KBRG/BRG METAR and TAF weather

Enter ICAO airport designator
Station Type Date Time Source
KBRG METAR 2019/03/21 03:35 UTC NOAA

KBRG 210335Z AUTO 14006KT 10SM CLR 10/00 A3021 RMK AO2 T00981005


Station Type Date Time Source
KBRG Decoded METAR 2019/03/21 03:35 UTC NOAA

Station name not available
Mar 20, 2019 - 11:35 PM EDT / 2019.03.21 0335 UTC
Wind: from the SE (140 degrees) at 7 MPH (6 KT):0
Visibility: 10 mile(s):0
Sky conditions: clear
Temperature: 49.6 F (9.8 C)
Dew Point: 31.1 F (-0.5 C)
Relative Humidity: 48%
Pressure (altimeter): 30.21 in. Hg (1023 hPa)
ob: KBRG 210335Z AUTO 14006KT 10SM CLR 10/00 A3021 RMK AO2 T00981005
cycle: 3

Station Type Date Time Source
KBRG TAF 2012/07/03 12:12 UTC NOAA

TAF SKBRG 031000Z 031212 VRB02KT 9999 FEW017 SCT080
TEMPO 0312/0317 11005KT VCTS - DZRAFEW015CB BKN070
TEMPO 0318/0323 TSRA FEW017CB BKN070
TEMPO 0400/0402 VCTS FEW020CB
TEMPO 0402/0406 -DZ SCT015CB
TEMPO 0408/0412 00000KT 5000 BCFG FEW005 TX23/0319Z TN10/0411Z

Example: see airport list